Time;durP1;ratioP1;P1;durP2;ratioP2;P2;SDS_P1;SDS_P2;PMS_P1;PMS_P2;Temp;Humidity;BMP_temperature;BMP_pressure;BME280_temperature;BME280_humidity;BME280_pressure;Samples;Min_cycle;Max_cycle;Signal;HPM_P1;HPM_P2
2021/05/11 00:02:22;;;;;;;;;;;;;;;21.60;31.10;98370.53;4924338;29;1972;-76
2021/05/11 00:04:48;;;;;;;;;;;;;;;21.67;31.02;98363.94;4924291;29;664;-76
2021/05/11 00:07:13;;;;;;;;;;;;;;;21.62;30.95;98365.25;4924806;29;656;-76
2021/05/11 00:09:39;;;;;;;;;;;;;;;21.56;31.20;98372.66;4924326;29;652;-76
2021/05/11 00:12:04;;;;;;;;;;;;;;;21.50;31.38;98357.41;4923959;29;955;-76
2021/05/11 00:14:30;;;;;;;;;;;;;;;21.49;31.49;98350.16;4924067;29;908;-76
2021/05/11 00:16:55;;;;;;;;;;;;;;;21.47;30.94;98355.47;4924419;29;855;-76
2021/05/11 00:19:21;;;;;;;;;;;;;;;21.50;31.06;98352.56;4924426;29;637;-76
2021/05/11 00:21:47;;;;;;;;;;;;;;;21.59;30.76;98357.63;4924141;29;1899;-76
2021/05/11 00:24:12;;;;;;;;;;;;;;;21.57;31.04;98360.91;4924122;29;624;-76
2021/05/11 00:26:38;;;;;;;;;;;;;;;21.54;30.86;98358.94;4923968;29;1067;-76
2021/05/11 00:29:04;;;;;;;;;;;;;;;21.54;30.84;98355.31;4923721;29;892;-76
2021/05/11 00:31:30;;;;;;;;;;;;;;;21.46;31.08;98348.19;4924410;29;971;-76
2021/05/11 00:33:55;;;;;;;;;;;;;;;21.45;31.08;98343.75;4923928;29;564;-76
2021/05/11 00:36:21;;;;;;;;;;;;;;;21.48;30.89;98335.19;4923827;29;999;-76
2021/05/11 00:38:46;;;;;;;;;;;;;;;21.56;30.75;98335.84;4923948;29;652;-76
2021/05/11 00:41:12;;;;;;;;;;;;;;;21.67;30.48;98333.59;4923408;29;1896;-76
2021/05/11 00:43:41;;;;;;;;;;;;;;;21.53;30.47;98325.41;4923582;29;945;-76
2021/05/11 00:46:07;;;;;;;;;;;;;;;21.54;30.51;98327.00;4924121;29;1030;-76
2021/05/11 00:48:32;;;;;;;;;;;;;;;21.58;30.50;98316.38;4923762;29;673;-76
2021/05/11 00:50:58;;;;;;;;;;;;;;;21.72;30.12;98324.59;4923782;29;612;-76
2021/05/11 00:53:23;;;;;;;;;;;;;;;21.63;30.35;98312.25;4923560;29;628;-76
2021/05/11 00:55:49;;;;;;;;;;;;;;;21.62;30.42;98314.28;4923744;29;960;-76
2021/05/11 00:58:14;;;;;;;;;;;;;;;21.47;30.58;98304.50;4907001;29;951;-76
2021/05/11 01:00:39;;;;;;;;;;;;;;;21.55;30.57;98314.41;4923845;29;1972;-76
2021/05/11 01:03:05;;;;;;;;;;;;;;;21.55;30.49;98311.59;4923757;29;1038;-76
2021/05/11 01:05:30;;;;;;;;;;;;;;;21.47;30.55;98310.16;4923658;29;724;-76
2021/05/11 01:07:56;;;;;;;;;;;;;;;21.54;30.46;98305.13;4923874;29;636;-76
2021/05/11 01:10:21;;;;;;;;;;;;;;;21.79;30.90;98306.63;4923311;29;1072;-76
2021/05/11 01:12:47;;;;;;;;;;;;;;;22.02;31.14;98305.69;4923471;29;869;-76
2021/05/11 01:15:12;;;;;;;;;;;;;;;22.20;30.99;98300.44;4923578;29;856;-76
2021/05/11 01:17:39;;;;;;;;;;;;;;;22.41;30.95;98301.13;4923774;29;557;-76
2021/05/11 01:20:14;;;;;;;;;;;;;;;22.02;30.94;98288.69;4923532;29;592;-76
2021/05/11 01:25:11;;;;;;;;;;;;;;;21.83;31.01;98282.66;4923063;29;1070;-76
2021/05/11 01:27:53;;;;;;;;;;;;;;;21.53;31.47;98280.88;4906948;29;1371;-76
2021/05/11 01:49:03;;;;;;;;;;;;;;;21.50;31.61;98286.63;4923585;29;632;-76
2021/05/11 01:54:19;;;;;;;;;;;;;;;21.58;31.25;98271.09;4923202;29;691;-76
2021/05/11 01:57:34;;;;;;;;;;;;;;;21.60;31.31;98274.25;4923014;29;1011;-75
2021/05/11 02:23:59;;;;;;;;;;;;;;;21.56;30.66;98267.91;4912297;29;643;-76
2021/05/11 02:26:25;;;;;;;;;;;;;;;21.54;30.91;98264.69;4926276;29;646;-75
2021/05/11 02:28:50;;;;;;;;;;;;;;;21.58;30.55;98256.94;4925767;29;929;-75
2021/05/11 02:31:16;;;;;;;;;;;;;;;21.53;30.60;98246.13;4926053;29;913;-75
2021/05/11 02:33:41;;;;;;;;;;;;;;;21.51;30.53;98245.78;4926395;29;953;-75
2021/05/11 02:36:06;;;;;;;;;;;;;;;21.55;30.78;98252.13;4925785;29;945;-75
2021/05/11 02:38:32;;;;;;;;;;;;;;;21.57;30.37;98244.00;4925947;29;640;-76
2021/05/11 02:40:57;;;;;;;;;;;;;;;21.47;30.58;98236.56;4925904;29;1912;-76
2021/05/11 02:43:28;;;;;;;;;;;;;;;21.90;31.11;98241.22;4926093;29;955;-76
2021/05/11 02:45:53;;;;;;;;;;;;;;;22.09;31.16;98252.47;4925547;29;863;-76
2021/05/11 02:48:18;;;;;;;;;;;;;;;22.24;31.24;98252.97;4925686;29;919;-76
2021/05/11 02:50:44;;;;;;;;;;;;;;;22.04;31.19;98246.53;4926140;29;661;-76
2021/05/11 02:53:09;;;;;;;;;;;;;;;21.85;31.06;98249.00;4925716;29;609;-76
2021/05/11 02:55:35;;;;;;;;;;;;;;;21.71;31.27;98252.19;4925705;29;690;-76
2021/05/11 02:58:00;;;;;;;;;;;;;;;21.76;31.12;98253.66;4925599;29;891;-76
2021/05/11 03:00:27;;;;;;;;;;;;;;;21.79;31.04;98261.31;4925270;29;939;-76
2021/05/11 03:02:52;;;;;;;;;;;;;;;21.71;31.29;98260.69;4925615;29;1898;-76
2021/05/11 03:05:18;;;;;;;;;;;;;;;21.86;31.06;98269.63;4925844;29;665;-76
2021/05/11 03:07:44;;;;;;;;;;;;;;;21.73;31.20;98254.56;4925648;29;884;-76
2021/05/11 03:10:10;;;;;;;;;;;;;;;21.68;31.42;98258.72;4925862;29;606;-76
2021/05/11 03:12:35;;;;;;;;;;;;;;;21.67;31.46;98267.66;4925381;29;900;-76
2021/05/11 03:15:01;;;;;;;;;;;;;;;21.70;31.08;98273.22;4925109;29;846;-77
2021/05/11 03:17:26;;;;;;;;;;;;;;;21.71;30.99;98263.50;4924573;29;872;-76
2021/05/11 03:19:52;;;;;;;;;;;;;;;21.57;31.16;98252.50;4925213;29;672;-76
2021/05/11 03:22:17;;;;;;;;;;;;;;;21.65;31.27;98265.25;4909309;29;1910;-76
2021/05/11 03:24:44;;;;;;;;;;;;;;;21.68;30.93;98270.03;4925146;29;588;-76
2021/05/11 03:27:18;;;;;;;;;;;;;;;21.78;30.82;98271.84;4925020;29;981;-76
2021/05/11 03:29:44;;;;;;;;;;;;;;;21.66;30.79;98266.88;4924688;29;965;-76
2021/05/11 03:32:09;;;;;;;;;;;;;;;21.61;31.17;98256.06;4925448;29;822;-76
2021/05/11 03:34:35;;;;;;;;;;;;;;;21.54;31.23;98254.16;4924900;29;634;-76
2021/05/11 03:37:01;;;;;;;;;;;;;;;21.44;31.08;98254.41;4908353;29;989;-76
2021/05/11 03:39:26;;;;;;;;;;;;;;;21.50;31.26;98258.31;4908787;29;1278;-76
2021/05/11 03:41:55;;;;;;;;;;;;;;;21.49;30.96;98262.38;4924612;29;1997;-76
2021/05/11 03:44:24;;;;;;;;;;;;;;;21.50;31.15;98269.63;4924802;29;857;-76
2021/05/11 03:46:50;;;;;;;;;;;;;;;21.65;30.59;98253.91;4924623;29;915;-76
2021/05/11 03:49:15;;;;;;;;;;;;;;;21.59;30.79;98255.69;4924759;29;616;-76
2021/05/11 03:51:41;;;;;;;;;;;;;;;21.52;30.69;98262.31;4924646;29;648;-76
2021/05/11 03:54:07;;;;;;;;;;;;;;;21.61;30.86;98261.72;4924549;29;624;-76
2021/05/11 03:56:32;;;;;;;;;;;;;;;21.60;30.66;98262.94;4924350;29;866;-76
2021/05/11 03:58:58;;;;;;;;;;;;;;;21.54;30.66;98264.69;4924759;29;915;-77
2021/05/11 04:01:24;;;;;;;;;;;;;;;21.55;30.80;98266.28;4924397;29;1903;-76
2021/05/11 04:03:49;;;;;;;;;;;;;;;21.58;30.48;98268.25;4924017;29;1260;-76
2021/05/11 04:06:15;;;;;;;;;;;;;;;21.50;30.92;98263.97;4924853;29;644;-76
2021/05/11 04:08:47;;;;;;;;;;;;;;;21.61;30.44;98270.22;4923983;29;892;-76
2021/05/11 04:16:34;;;;;;;;;;;;;;;21.62;30.67;98271.00;4907724;29;789;-76
2021/05/11 04:19:00;;;;;;;;;;;;;;;21.66;30.46;98266.88;4924237;29;648;-76
2021/05/11 04:21:25;;;;;;;;;;;;;;;21.59;30.57;98272.66;4923814;29;1981;-77
2021/05/11 04:23:51;;;;;;;;;;;;;;;21.53;30.47;98274.44;4924150;29;972;-76
2021/05/11 04:26:17;;;;;;;;;;;;;;;21.63;30.14;98279.06;4924422;29;825;-77
2021/05/11 04:28:42;;;;;;;;;;;;;;;21.49;30.45;98268.03;4907451;29;903;-76
2021/05/11 04:31:08;;;;;;;;;;;;;;;21.49;30.88;98274.50;4924679;29;658;-77
2021/05/11 04:33:33;;;;;;;;;;;;;;;21.58;30.44;98273.91;4924310;29;668;-76
2021/05/11 04:35:59;;;;;;;;;;;;;;;21.55;30.63;98277.63;4920451;29;1354;-77
2021/05/11 04:38:24;;;;;;;;;;;;;;;21.50;30.44;98283.78;4942465;29;1377;-77
2021/05/11 04:40:50;;;;;;;;;;;;;;;21.58;30.35;98291.69;4942569;29;1914;-77
2021/05/11 04:43:16;;;;;;;;;;;;;;;21.60;30.44;98285.59;4926432;29;601;-77
2021/05/11 04:45:42;;;;;;;;;;;;;;;21.64;30.42;98291.97;4942946;29;707;-76
2021/05/11 04:48:07;;;;;;;;;;;;;;;21.66;30.47;98294.38;4942933;29;660;-76
2021/05/11 04:50:33;;;;;;;;;;;;;;;21.68;30.33;98286.25;4942515;29;894;-76
2021/05/11 04:52:58;;;;;;;;;;;;;;;21.72;30.16;98281.31;4942611;29;965;-77
2021/05/11 04:55:24;;;;;;;;;;;;;;;21.59;30.65;98278.34;4942750;29;934;-76
2021/05/11 04:57:49;;;;;;;;;;;;;;;21.63;30.36;98283.94;4942754;29;636;-76
2021/05/11 05:00:15;;;;;;;;;;;;;;;21.65;30.40;98285.06;4926418;29;1264;-77
2021/05/11 05:02:43;;;;;;;;;;;;;;;21.61;30.12;98286.41;4926623;29;1973;-76
2021/05/11 05:05:09;;;;;;;;;;;;;;;21.59;30.27;98284.00;4942116;29;1294;-76
2021/05/11 05:07:35;;;;;;;;;;;;;;;21.35;30.26;98279.66;4942088;29;1349;-76
2021/05/11 05:10:00;;;;;;;;;;;;;;;21.40;30.37;98282.81;4942531;29;1330;-76
2021/05/11 05:12:26;;;;;;;;;;;;;;;21.95;30.71;98286.03;4942659;29;655;-76
2021/05/11 05:14:51;;;;;;;;;;;;;;;22.12;30.83;98287.66;4942586;29;647;-76
2021/05/11 05:17:16;;;;;;;;;;;;;;;22.21;30.82;98296.34;4942614;29;1384;-76
2021/05/11 05:19:42;;;;;;;;;;;;;;;22.18;30.81;98285.13;4942283;29;929;-77
2021/05/11 05:22:08;;;;;;;;;;;;;;;21.83;31.18;98291.16;4942193;29;1973;-76
2021/05/11 05:24:41;;;;;;;;;;;;;;;21.69;30.97;98282.16;4942486;29;982;-77
2021/05/11 05:27:36;;;;;;;;;;;;;;;21.72;30.72;98284.94;4942621;29;1416;-77
2021/05/11 05:29:55;;;;;;;;;;;;;;;21.53;30.81;98297.09;4941250;29;1833;-76
2021/05/11 05:32:20;;;;;;;;;;;;;;;21.54;30.85;98287.34;4942548;29;1415;-76
2021/05/11 05:34:46;;;;;;;;;;;;;;;21.50;30.75;98280.97;4942447;29;943;-76
2021/05/11 05:37:12;;;;;;;;;;;;;;;21.47;30.61;98287.50;4941735;29;1332;-76
2021/05/11 05:42:03;;;;;;;;;;;;;;;21.40;30.95;98287.66;4945138;29;1985;-76
2021/05/11 05:44:28;;;;;;;;;;;;;;;21.54;30.38;98284.50;4945214;29;1261;-76
2021/05/11 05:46:54;;;;;;;;;;;;;;;21.41;30.63;98294.94;4945688;29;1189;-76
2021/05/11 05:49:20;;;;;;;;;;;;;;;21.41;30.71;98294.94;4929133;29;889;-76
2021/05/11 05:51:49;;;;;;;;;;;;;;;21.37;30.53;98297.03;4945467;29;1249;-76
2021/05/11 05:54:14;;;;;;;;;;;;;;;21.74;30.71;98290.94;4946060;29;872;-76
2021/05/11 05:56:40;;;;;;;;;;;;;;;22.00;30.71;98297.63;4945812;29;1469;-76
2021/05/11 05:59:05;;;;;;;;;;;;;;;22.24;30.11;98289.81;4945606;29;714;-76
2021/05/11 06:01:30;;;;;;;;;;;;;;;22.24;29.87;98284.13;4945485;29;1975;-77
2021/05/11 06:04:07;;;;;;;;;;;;;;;22.01;30.20;98295.59;4945449;29;943;-76
2021/05/11 06:06:32;;;;;;;;;;;;;;;21.76;29.95;98290.50;4945477;29;822;-76
2021/05/11 06:08:59;;;;;;;;;;;;;;;21.74;29.81;98296.59;4944388;29;1344;-76
2021/05/11 06:12:00;;;;;;;;;;;;;;;21.69;29.88;98294.28;4945468;29;1406;-76
2021/05/11 06:14:31;;;;;;;;;;;;;;;21.57;29.95;98292.16;4941515;29;1454;-76
2021/05/11 06:17:13;;;;;;;;;;;;;;;21.40;30.21;98288.47;4945405;29;671;-74
2021/05/11 06:19:39;;;;;;;;;;;;;;;21.42;30.40;98291.66;4944443;29;1704;-76
2021/05/11 06:22:04;;;;;;;;;;;;;;;21.44;30.44;98285.53;4944909;29;1946;-76
2021/05/11 06:24:29;;;;;;;;;;;;;;;21.41;30.52;98289.25;4945315;29;690;-76
2021/05/11 06:26:55;;;;;;;;;;;;;;;21.95;30.37;98289.66;4945088;29;1430;-76
2021/05/11 06:29:23;;;;;;;;;;;;;;;22.23;29.67;98288.22;4945311;29;675;-76
2021/05/11 06:31:49;;;;;;;;;;;;;;;22.43;29.52;98278.81;4945117;29;1419;-76
2021/05/11 06:34:14;;;;;;;;;;;;;;;22.01;29.49;98278.59;4944643;29;1301;-76
2021/05/11 06:36:40;;;;;;;;;;;;;;;21.67;30.05;98291.13;4944066;29;1642;-75
2021/05/11 06:39:08;;;;;;;;;;;;;;;21.56;30.12;98290.56;4928247;29;974;-74
2021/05/11 06:41:35;;;;;;;;;;;;;;;21.51;30.24;98282.56;4944782;29;1973;-76
2021/05/11 06:44:07;;;;;;;;;;;;;;;21.53;29.79;98278.06;4944879;29;623;-76
2021/05/11 06:54:13;;;;;;;;;;;;;;;21.46;30.04;98281.06;4944745;29;1418;-76
2021/05/11 06:56:41;;;;;;;;;;;;;;;21.41;30.21;98283.59;4944915;29;653;-76
2021/05/11 06:59:06;;;;;;;;;;;;;;;21.32;30.08;98282.16;4944867;29;655;-76
2021/05/11 07:01:32;;;;;;;;;;;;;;;21.47;29.85;98287.50;4944501;29;1906;-77
2021/05/11 07:03:58;;;;;;;;;;;;;;;21.70;30.32;98284.56;4944386;29;839;-76
2021/05/11 07:06:23;;;;;;;;;;;;;;;22.03;29.63;98290.28;4944243;29;897;-76
2021/05/11 07:08:54;;;;;;;;;;;;;;;22.25;29.15;98282.09;4944276;29;813;-76
2021/05/11 07:13:45;;;;;;;;;;;;;;;21.82;29.40;98283.88;4944421;29;626;-76
2021/05/11 07:16:10;;;;;;;;;;;;;;;21.60;30.03;98285.59;4944413;29;632;-76
2021/05/11 07:18:36;;;;;;;;;;;;;;;21.57;29.60;98280.81;4943946;29;1044;-76
2021/05/11 07:21:01;;;;;;;;;;;;;;;21.51;29.57;98282.56;4944002;29;1990;-76
2021/05/11 07:23:27;;;;;;;;;;;;;;;21.53;29.76;98291.41;4943893;29;1281;-76
2021/05/11 07:31:08;;;;;;;;;;;;;;;21.58;29.42;98288.06;4944088;29;664;-77
2021/05/11 07:33:40;;;;;;;;;;;;;;;21.52;29.85;98292.66;4943801;29;1060;-76
2021/05/11 07:36:06;;;;;;;;;;;;;;;22.23;29.34;98298.75;4943673;29;1185;-76
2021/05/11 07:38:32;;;;;;;;;;;;;;;22.48;29.22;98298.13;4943939;29;789;-76
2021/05/11 07:40:57;;;;;;;;;;;;;;;22.12;29.68;98290.50;4927321;29;1910;-76
2021/05/11 07:43:23;;;;;;;;;;;;;;;21.83;30.28;98293.97;4944024;29;648;-77
2021/05/11 07:51:34;;;;;;;;;;;;;;;21.61;30.34;98281.53;4943527;29;949;-76
2021/05/11 08:02:56;;;;;;;;;;;;;;;21.88;29.64;98289.81;4943137;29;1907;-72
2021/05/11 08:10:32;;;;;;;;;;;;;;;22.29;29.19;98286.44;4943379;29;651;-72
2021/05/11 08:15:44;;;;;;;;;;;;;;;22.25;28.96;98291.41;4943137;29;668;-75
2021/05/11 08:28:28;;;;;;;;;;;;;;;21.73;29.47;98289.34;4943236;29;673;-77
2021/05/11 08:30:54;;;;;;;;;;;;;;;21.53;29.83;98274.44;4927052;29;1118;-76
2021/05/11 08:33:19;;;;;;;;;;;;;;;21.68;29.56;98281.38;4942813;29;1316;-76
2021/05/11 08:35:45;;;;;;;;;;;;;;;21.68;29.26;98275.72;4942471;29;1348;-76
2021/05/11 08:38:10;;;;;;;;;;;;;;;21.60;29.38;98291.25;4942648;29;1001;-76
2021/05/11 08:40:39;;;;;;;;;;;;;;;21.52;29.35;98281.34;4942818;29;823;-76
2021/05/11 08:43:22;;;;;;;;;;;;;;;21.61;29.18;98292.88;4942534;29;1981;-76
2021/05/11 08:45:48;;;;;;;;;;;;;;;21.53;29.75;98285.75;4943093;29;639;-75
2021/05/11 08:48:14;;;;;;;;;;;;;;;21.45;29.37;98285.13;4943129;29;652;-76
2021/05/11 08:50:42;;;;;;;;;;;;;;;21.44;29.47;98289.16;4942668;29;862;-76
2021/05/11 09:07:32;;;;;;;;;;;;;;;21.54;29.98;98276.03;4942195;29;1415;-76
2021/05/11 10:49:26;;;;;;;;;;;;;;;21.56;30.18;98233.94;4936618;29;1341;-75
2021/05/11 10:52:04;;;;;;;;;;;;;;;21.53;30.11;98229.13;4944958;29;707;-75
2021/05/11 10:54:37;;;;;;;;;;;;;;;21.43;29.94;98213.97;4944429;29;1349;-76
2021/05/11 10:57:04;;;;;;;;;;;;;;;21.55;30.08;98226.66;4944873;29;711;-75
2021/05/11 10:59:51;;;;;;;;;;;;;;;21.67;29.57;98216.69;4944266;29;1289;-76
2021/05/11 11:02:35;;;;;;;;;;;;;;;21.52;29.85;98221.88;4944246;29;1906;-75
2021/05/11 11:05:03;;;;;;;;;;;;;;;21.42;30.00;98220.09;4944322;29;1340;-76
2021/05/11 11:07:32;;;;;;;;;;;;;;;21.42;30.07;98235.03;4909123;29;1354;-75
2021/05/11 11:09:59;;;;;;;;;;;;;;;21.50;30.07;98227.16;4925857;29;703;-75
2021/05/11 11:12:31;;;;;;;;;;;;;;;21.43;29.87;98218.84;4925589;29;636;-75
2021/05/11 11:14:56;;;;;;;;;;;;;;;21.63;30.26;98222.44;4924473;29;968;-76
2021/05/11 11:17:21;;;;;;;;;;;;;;;22.06;29.58;98224.22;4909013;29;876;-76
2021/05/11 11:19:53;;;;;;;;;;;;;;;22.33;29.07;98216.28;4925728;29;918;-76
2021/05/11 11:25:03;;;;;;;;;;;;;;;21.95;29.52;98209.53;4943285;29;1369;-75
2021/05/11 11:27:29;;;;;;;;;;;;;;;21.85;29.47;98211.38;4944338;29;695;-76
2021/05/11 11:29:59;;;;;;;;;;;;;;;21.73;29.70;98204.38;4942019;29;1305;-75
2021/05/11 11:32:24;;;;;;;;;;;;;;;21.65;29.53;98219.94;4943580;29;1495;-75
2021/05/11 11:34:53;;;;;;;;;;;;;;;21.60;29.71;98211.97;4944056;29;1045;-75
2021/05/11 11:37:19;;;;;;;;;;;;;;;21.48;30.03;98215.50;4935243;29;1341;-76
2021/05/11 11:39:45;;;;;;;;;;;;;;;21.38;30.22;98205.22;4943073;29;649;-75
2021/05/11 11:42:16;;;;;;;;;;;;;;;21.40;29.87;98209.22;4944103;29;1911;-75
2021/05/11 11:44:42;;;;;;;;;;;;;;;21.46;29.99;98196.13;4943534;29;866;-76
2021/05/11 11:47:11;;;;;;;;;;;;;;;21.55;29.71;98204.81;4943372;29;1345;-76
2021/05/11 11:49:46;;;;;;;;;;;;;;;21.88;29.85;98201.22;4943709;29;836;-75
2021/05/11 12:00:14;;;;;;;;;;;;;;;21.77;29.28;98198.66;5139165;27;1353;-75
2021/05/11 12:02:59;;;;;;;;;;;;;;;21.58;29.73;98181.28;5138593;28;886;-75
2021/05/11 12:05:29;;;;;;;;;;;;;;;21.63;29.24;98188.44;5138920;28;675;-75
2021/05/11 12:10:38;;;;;;;;;;;;;;;21.58;29.43;98183.31;5134222;27;1361;-75
2021/05/11 12:13:05;;;;;;;;;;;;;;;21.53;29.29;98169.69;5118010;28;648;-75
2021/05/11 12:15:30;;;;;;;;;;;;;;;21.60;29.22;98161.00;5117548;28;868;-76
2021/05/11 12:17:58;;;;;;;;;;;;;;;21.56;29.26;98166.78;5106189;28;1909;-75
2021/05/11 12:20:27;;;;;;;;;;;;;;;21.40;29.52;98163.09;5120778;28;1118;-75
2021/05/11 12:23:02;;;;;;;;;;;;;;;21.45;29.61;98162.56;5138372;28;756;-75
2021/05/11 12:25:28;;;;;;;;;;;;;;;21.40;29.50;98168.75;5138373;28;625;-75
2021/05/11 12:27:53;;;;;;;;;;;;;;;21.46;29.17;98167.03;5137954;27;1338;-75
2021/05/11 12:30:18;;;;;;;;;;;;;;;21.96;29.27;98160.91;5137742;27;1512;-75
2021/05/11 12:32:44;;;;;;;;;;;;;;;22.24;29.24;98167.13;5120102;28;1247;-75
2021/05/11 12:35:13;;;;;;;;;;;;;;;22.16;29.39;98157.22;5138359;28;793;-75
2021/05/11 12:37:53;;;;;;;;;;;;;;;21.88;29.41;98147.41;5120272;28;661;-75
2021/05/11 12:40:36;;;;;;;;;;;;;;;21.63;30.14;98153.66;5137695;27;1358;-75
2021/05/11 12:43:02;;;;;;;;;;;;;;;21.66;29.63;98147.94;5138089;28;696;-75
2021/05/11 12:45:29;;;;;;;;;;;;;;;21.68;29.88;98144.66;5137400;28;1290;-74
2021/05/11 12:48:02;;;;;;;;;;;;;;;21.74;29.89;98151.38;5122635;28;1363;-75
2021/05/11 12:50:31;;;;;;;;;;;;;;;21.66;30.04;98149.94;5154248;27;1001;-75
2021/05/11 12:53:02;;;;;;;;;;;;;;;21.62;29.99;98152.88;5137849;28;597;-75
2021/05/11 12:55:34;;;;;;;;;;;;;;;21.54;30.03;98146.56;5153807;27;704;-75
2021/05/11 12:58:20;;;;;;;;;;;;;;;21.54;30.35;98151.44;5137510;28;1977;-75
2021/05/11 13:00:48;;;;;;;;;;;;;;;21.52;30.15;98148.28;5151130;27;1370;-76
2021/05/11 13:03:35;;;;;;;;;;;;;;;21.56;30.22;98143.31;5137343;28;934;-75
2021/05/11 13:27:56;;;;;;;;;;;;;;;21.41;30.36;98119.41;5123547;28;726;-75
2021/05/11 13:30:47;;;;;;;;;;;;;;;21.45;30.38;98118.09;5122974;28;1278;-75
2021/05/11 13:35:33;;;;;;;;;;;;;;;21.56;30.14;98115.00;5122943;28;943;-75
2021/05/11 13:37:59;;;;;;;;;;;;;;;21.71;30.30;98116.25;5123562;28;1971;-75
2021/05/11 13:40:24;;;;;;;;;;;;;;;22.07;30.29;98113.28;5122814;28;1326;-75
2021/05/11 13:42:51;;;;;;;;;;;;;;;22.25;30.31;98103.53;5139843;27;609;-75
2021/05/11 13:45:16;;;;;;;;;;;;;;;22.54;29.91;98097.84;5123367;28;652;-76
2021/05/11 13:47:54;;;;;;;;;;;;;;;22.04;30.10;98100.00;5122751;28;1087;-75
2021/05/11 13:50:20;;;;;;;;;;;;;;;21.72;30.55;98103.69;5122714;28;1346;-75
2021/05/11 13:52:45;;;;;;;;;;;;;;;21.69;30.54;98107.38;5123217;28;709;-75
2021/05/11 13:55:20;;;;;;;;;;;;;;;21.62;30.63;98106.78;5123178;28;601;-75
2021/05/11 14:03:14;;;;;;;;;;;;;;;21.47;30.99;98095.00;5122515;28;983;-75
2021/05/11 14:05:39;;;;;;;;;;;;;;;21.66;30.64;98094.13;5122286;28;885;-75
2021/05/11 14:08:04;;;;;;;;;;;;;;;21.60;30.53;98095.88;5122642;28;649;-75
2021/05/11 14:10:30;;;;;;;;;;;;;;;21.44;30.68;98095.88;5122371;28;1350;-75
2021/05/11 14:12:56;;;;;;;;;;;;;;;21.66;30.54;98091.28;5122430;28;658;-75
2021/05/11 14:15:21;;;;;;;;;;;;;;;21.57;30.64;98093.94;5122418;28;645;-75
2021/05/11 14:17:47;;;;;;;;;;;;;;;21.61;30.75;98089.00;5122187;28;1363;-75
2021/05/11 14:20:12;;;;;;;;;;;;;;;21.57;30.65;98088.28;5122305;28;1887;-75
2021/05/11 14:22:38;;;;;;;;;;;;;;;21.55;30.21;98088.72;5120684;28;1299;-75
2021/05/11 14:25:04;;;;;;;;;;;;;;;21.55;30.28;98090.75;5122321;28;605;-75
2021/05/11 14:27:29;;;;;;;;;;;;;;;21.61;30.17;98083.34;5104607;28;670;-75
2021/05/11 14:29:55;;;;;;;;;;;;;;;21.57;30.23;98082.63;5122493;28;598;-75
2021/05/11 14:32:20;;;;;;;;;;;;;;;21.58;30.42;98087.03;5121882;28;1299;-75
2021/05/11 14:34:47;;;;;;;;;;;;;;;21.59;30.28;98078.09;5121768;28;933;-75
2021/05/11 14:37:12;;;;;;;;;;;;;;;21.51;30.26;98075.91;5104251;28;819;-75
2021/05/11 14:39:38;;;;;;;;;;;;;;;21.54;30.31;98066.50;5122507;28;1909;-75
2021/05/11 14:42:03;;;;;;;;;;;;;;;21.53;30.17;98062.09;5121819;28;1335;-75
2021/05/11 14:44:29;;;;;;;;;;;;;;;21.66;30.07;98068.63;5121654;28;1338;-75
2021/05/11 14:46:57;;;;;;;;;;;;;;;21.61;29.79;98066.34;5121465;28;856;-75
2021/05/11 14:49:22;;;;;;;;;;;;;;;21.52;29.88;98061.28;5121572;28;885;-75
2021/05/11 14:51:48;;;;;;;;;;;;;;;21.55;29.81;98054.75;5121749;28;979;-76
2021/05/11 14:54:13;;;;;;;;;;;;;;;21.54;30.13;98058.00;5121922;28;1334;-75
2021/05/11 14:56:41;;;;;;;;;;;;;;;21.35;30.11;98059.72;5121729;28;681;-75
2021/05/11 14:59:08;;;;;;;;;;;;;;;21.60;30.10;98047.75;5121320;28;1988;-75
2021/05/11 15:01:33;;;;;;;;;;;;;;;22.00;30.21;98050.34;5103640;28;1081;-75
2021/05/11 15:04:02;;;;;;;;;;;;;;;22.18;30.63;98053.50;5103181;28;1616;-75
2021/05/11 15:06:27;;;;;;;;;;;;;;;22.36;30.31;98061.50;5121540;28;908;-75
2021/05/11 15:08:53;;;;;;;;;;;;;;;22.01;30.73;98049.09;5121377;28;676;-76
2021/05/11 15:11:18;;;;;;;;;;;;;;;21.82;30.54;98048.78;5121357;28;662;-76
2021/05/11 15:13:45;;;;;;;;;;;;;;;21.76;30.74;98047.75;5121196;28;1342;-75
2021/05/11 15:16:12;;;;;;;;;;;;;;;21.70;30.43;98046.66;5120960;28;1464;-75
2021/05/11 15:18:38;;;;;;;;;;;;;;;21.55;30.72;98046.25;5121127;28;1976;-75
2021/05/11 15:21:03;;;;;;;;;;;;;;;21.51;31.05;98044.75;5121245;28;901;-75
2021/05/11 15:23:29;;;;;;;;;;;;;;;21.66;30.52;98031.81;5121791;28;694;-75
2021/05/11 15:25:54;;;;;;;;;;;;;;;21.59;30.70;98037.66;5120745;28;1350;-75
2021/05/11 15:28:20;;;;;;;;;;;;;;;21.61;30.34;98038.03;5120925;28;1362;-75
2021/05/11 15:30:46;;;;;;;;;;;;;;;21.54;30.44;98032.53;5120814;28;967;-75
2021/05/11 15:33:11;;;;;;;;;;;;;;;21.68;30.19;98037.03;5120497;28;910;-75
2021/05/11 15:35:37;;;;;;;;;;;;;;;21.64;30.53;98034.28;5120619;28;1306;-75
2021/05/11 15:38:05;;;;;;;;;;;;;;;21.59;30.09;98029.16;5103253;28;1890;-74
2021/05/11 15:40:31;;;;;;;;;;;;;;;21.67;30.19;98035.44;5120868;28;602;-74
2021/05/11 15:42:57;;;;;;;;;;;;;;;21.55;30.04;98031.28;5120938;28;666;-74
2021/05/11 15:45:23;;;;;;;;;;;;;;;21.49;30.35;98030.22;5120515;28;1398;-74
2021/05/11 15:47:54;;;;;;;;;;;;;;;21.53;30.00;98030.94;5120385;28;1394;-74
2021/05/11 15:50:20;;;;;;;;;;;;;;;21.33;30.64;98026.19;5120964;28;904;-75
2021/05/11 15:52:45;;;;;;;;;;;;;;;21.46;30.32;98026.28;5120822;28;591;-75
2021/05/11 15:55:11;;;;;;;;;;;;;;;21.60;29.96;98025.09;5120833;28;637;-75
2021/05/11 15:57:37;;;;;;;;;;;;;;;21.62;29.89;98019.00;5120437;28;1366;-75
2021/05/11 16:00:03;;;;;;;;;;;;;;;21.47;30.19;98018.56;5120486;28;1984;-75
2021/05/11 16:02:38;;;;;;;;;;;;;;;21.47;29.98;98021.41;5120354;28;828;-75
2021/05/11 16:05:06;;;;;;;;;;;;;;;20.00;30.45;97753.56;5120628;28;1124;-75
2021/05/11 16:07:31;;;;;;;;;;;;;;;22.09;30.31;98022.94;5120702;28;1303;-75
2021/05/11 16:09:57;;;;;;;;;;;;;;;22.34;30.22;98022.25;5120540;28;646;-75
2021/05/11 16:12:23;;;;;;;;;;;;;;;21.89;30.35;98018.66;5120712;28;1389;-75
2021/05/11 16:14:49;;;;;;;;;;;;;;;21.69;30.58;98013.94;5120348;28;883;-75
2021/05/11 16:17:15;;;;;;;;;;;;;;;21.60;30.58;98019.41;5120327;28;906;-75
2021/05/11 16:19:40;;;;;;;;;;;;;;;21.68;30.19;98015.19;5120435;28;1902;-75
2021/05/11 16:22:06;;;;;;;;;;;;;;;21.54;30.52;98009.88;5120921;28;711;-75
2021/05/11 16:24:31;;;;;;;;;;;;;;;21.54;30.67;98015.53;5120279;28;1235;-75
2021/05/11 16:26:57;;;;;;;;;;;;;;;21.62;30.50;98016.97;5120228;28;1386;-75
2021/05/11 16:29:22;;;;;;;;;;;;;;;21.51;30.44;98013.63;5119944;28;1296;-75
2021/05/11 16:31:48;;;;;;;;;;;;;;;21.57;30.29;98014.66;5120404;28;868;-75
2021/05/11 16:34:13;;;;;;;;;;;;;;;21.44;30.63;98010.97;5120032;28;1307;-75
2021/05/11 16:36:39;;;;;;;;;;;;;;;21.44;30.69;98014.56;5120537;28;870;-75
2021/05/11 16:39:04;;;;;;;;;;;;;;;21.56;30.05;98007.41;5120449;28;1894;-76
2021/05/11 16:41:30;;;;;;;;;;;;;;;21.50;30.51;98009.19;5120402;28;582;-75
2021/05/11 16:43:57;;;;;;;;;;;;;;;21.47;30.25;98012.91;5119731;28;1267;-75
2021/05/11 16:46:23;;;;;;;;;;;;;;;21.53;30.10;98008.31;5122832;28;906;-75
2021/05/11 16:48:48;;;;;;;;;;;;;;;21.43;30.46;98003.72;5124043;28;1021;-75
2021/05/11 16:51:14;;;;;;;;;;;;;;;21.76;30.63;97999.59;5124201;28;594;-75
2021/05/11 16:53:39;;;;;;;;;;;;;;;22.12;30.43;98004.28;5123986;28;1469;-75
2021/05/11 16:56:05;;;;;;;;;;;;;;;22.28;29.96;98007.06;5123897;28;1556;-75
2021/05/11 16:58:30;;;;;;;;;;;;;;;22.17;30.12;98011.44;5123544;28;1905;-75
2021/05/11 17:00:55;;;;;;;;;;;;;;;21.81;30.45;98006.72;5123744;28;911;-75
2021/05/11 17:03:22;;;;;;;;;;;;;;;21.66;30.44;98011.19;5123626;28;1386;-75
2021/05/11 17:05:48;;;;;;;;;;;;;;;21.57;30.44;98003.34;5123816;28;667;-76
2021/05/11 17:08:14;;;;;;;;;;;;;;;21.50;30.58;97992.19;5123723;28;645;-75
2021/05/11 17:10:41;;;;;;;;;;;;;;;21.64;30.42;97997.47;5123810;28;614;-75
2021/05/11 17:13:06;;;;;;;;;;;;;;;21.47;30.80;97998.75;5123011;28;1334;-75
2021/05/11 17:15:32;;;;;;;;;;;;;;;21.53;30.67;98009.09;5123373;28;883;-75
2021/05/11 17:18:01;;;;;;;;;;;;;;;21.52;30.80;98001.06;5123641;28;1990;-75
2021/05/11 17:20:42;;;;;;;;;;;;;;;21.59;30.53;98006.50;5140301;27;641;-75
2021/05/11 17:23:07;;;;;;;;;;;;;;;21.45;30.84;97995.56;5123381;28;1204;-75
2021/05/11 17:25:32;;;;;;;;;;;;;;;21.48;30.72;97991.84;5105510;28;1316;-76